Rumbek Airport


Codes: HSMK/RBX
Name: Rumbek Airport
City: Rumbek
Country: South Sudan
Elevation: 1378 ft.
Wikipedia:

Photos at Rumbek Airport


   Photos courtesy of SpottingLog. You can add your own sightings and photos by signing up for a free trial today.



No photos found.

Weather at Rumbek Airport


Time (UTC)DescriptionTempratureWindCloud coverageVisibilityPressureHumidity
21-Feb-2024 03:00Broken Clouds29°C4 mph, NW61%10000m1006hPa17%
21-Feb-2024 06:00Broken Clouds31°C7 mph, NE81%10000m1008hPa16%
21-Feb-2024 09:00Overcast Clouds38°C11 mph, E92%10000m1007hPa11%
21-Feb-2024 12:00Overcast Clouds39°C4 mph, SE93%10000m1004hPa12%
21-Feb-2024 15:00Overcast Clouds39°C7 mph, E100%10000m1003hPa18%
21-Feb-2024 18:00Light Rain33°C7 mph, NE100%10000m1006hPa31%
21-Feb-2024 21:00Overcast Clouds32°C4 mph, NE99%10000m1006hPa35%
22-Feb-2024 00:00Overcast Clouds30°C4 mph, NE100%10000m1004hPa38%
22-Feb-2024 03:00Overcast Clouds28°C4 mph, NE88%10000m1006hPa37%
22-Feb-2024 06:00Light Rain30°C9 mph, NE68%10000m1008hPa31%
22-Feb-2024 09:00Scattered Clouds38°C11 mph, E29%10000m1007hPa22%
22-Feb-2024 12:00Scattered Clouds39°C11 mph, E44%10000m1002hPa21%
22-Feb-2024 15:00Broken Clouds38°C7 mph, NE82%10000m1002hPa22%
22-Feb-2024 18:00Overcast Clouds34°C7 mph, N90%10000m1004hPa28%
22-Feb-2024 21:00Overcast Clouds31°C4 mph, NE92%10000m1005hPa28%
23-Feb-2024 00:00Overcast Clouds30°C4 mph, E93%10000m1004hPa34%
23-Feb-2024 03:00Overcast Clouds29°C4 mph, E100%10000m1006hPa37%
23-Feb-2024 06:00Overcast Clouds32°C7 mph, SE100%10000m1007hPa26%
23-Feb-2024 09:00Overcast Clouds39°C13 mph, SE98%10000m1006hPa17%
23-Feb-2024 12:00Overcast Clouds41°C11 mph, E98%10000m1003hPa14%
23-Feb-2024 15:00Overcast Clouds41°C9 mph, E100%10000m1002hPa13%
23-Feb-2024 18:00Overcast Clouds36°C7 mph, E100%10000m1004hPa18%
23-Feb-2024 21:00Broken Clouds33°C4 mph, NE81%10000m1005hPa24%
24-Feb-2024 00:00Broken Clouds31°C4 mph, E81%10000m1005hPa28%
24-Feb-2024 03:00Overcast Clouds29°C4 mph, SE93%10000m1006hPa33%
24-Feb-2024 06:00Overcast Clouds33°C9 mph, SE92%10000m1008hPa29%
24-Feb-2024 09:00Overcast Clouds41°C11 mph, E100%10000m1006hPa17%
24-Feb-2024 12:00Overcast Clouds40°C9 mph, E100%10000m1003hPa16%
24-Feb-2024 15:00Overcast Clouds38°C7 mph, NE94%10000m1003hPa20%
24-Feb-2024 18:00Overcast Clouds34°C0 mph, N89%10000m1005hPa25%
24-Feb-2024 21:00Overcast Clouds32°C2 mph, NW85%10000m1006hPa30%
25-Feb-2024 00:00Broken Clouds30°C2 mph, NE73%10000m1005hPa36%
25-Feb-2024 03:00Light Rain29°C0 mph, E89%10000m1006hPa42%
25-Feb-2024 06:00Broken Clouds33°C4 mph, NE70%10000m1009hPa28%
25-Feb-2024 09:00Overcast Clouds39°C9 mph, NE96%10000m1008hPa21%
25-Feb-2024 12:00Overcast Clouds41°C7 mph, NE98%10000m1003hPa18%
25-Feb-2024 15:00Overcast Clouds39°C7 mph, NE100%10000m1002hPa19%
25-Feb-2024 18:00Light Rain34°C2 mph, NW100%10000m1005hPa28%
25-Feb-2024 21:00Overcast Clouds33°C2 mph, NW100%10000m1006hPa30%
26-Feb-2024 00:00Overcast Clouds32°C4 mph, W100%10000m1005hPa32%